sensor_id;sensor_type;location;lat;lon;timestamp;temperature;humidity
28460;DHT22;32528;45.712;9.192;2023-04-28T00:01:57;12.30;91.60
28460;DHT22;32528;45.712;9.192;2023-04-28T00:03:57;12.30;91.60
28460;DHT22;32528;45.712;9.192;2023-04-28T00:05:59;12.30;91.60
28460;DHT22;32528;45.712;9.192;2023-04-28T00:08:00;12.30;91.70
28460;DHT22;32528;45.712;9.192;2023-04-28T00:10:02;12.20;91.80
28460;DHT22;32528;45.712;9.192;2023-04-28T00:12:05;12.20;91.70
28460;DHT22;32528;45.712;9.192;2023-04-28T00:14:06;12.10;91.80
28460;DHT22;32528;45.712;9.192;2023-04-28T00:16:06;12.20;92.00
28460;DHT22;32528;45.712;9.192;2023-04-28T00:18:07;12.10;92.00
28460;DHT22;32528;45.712;9.192;2023-04-28T00:20:09;12.10;92.10
28460;DHT22;32528;45.712;9.192;2023-04-28T00:22:10;12.10;92.10
28460;DHT22;32528;45.712;9.192;2023-04-28T00:24:11;12.00;92.00
28460;DHT22;32528;45.712;9.192;2023-04-28T00:26:12;12.00;92.30
28460;DHT22;32528;45.712;9.192;2023-04-28T00:28:16;12.00;92.40
28460;DHT22;32528;45.712;9.192;2023-04-28T00:30:17;12.00;92.40
28460;DHT22;32528;45.712;9.192;2023-04-28T00:32:19;12.00;92.50
28460;DHT22;32528;45.712;9.192;2023-04-28T00:34:20;11.90;92.40
28460;DHT22;32528;45.712;9.192;2023-04-28T00:36:21;12.00;92.30
28460;DHT22;32528;45.712;9.192;2023-04-28T00:38:22;12.00;92.40
28460;DHT22;32528;45.712;9.192;2023-04-28T00:40:35;12.00;92.40
28460;DHT22;32528;45.712;9.192;2023-04-28T00:42:37;12.10;92.20
28460;DHT22;32528;45.712;9.192;2023-04-28T00:44:38;12.00;92.20
28460;DHT22;32528;45.712;9.192;2023-04-28T00:46:40;12.20;92.10
28460;DHT22;32528;45.712;9.192;2023-04-28T00:48:41;12.10;92.30
28460;DHT22;32528;45.712;9.192;2023-04-28T00:50:43;12.00;92.50
28460;DHT22;32528;45.712;9.192;2023-04-28T00:52:44;12.00;92.50
28460;DHT22;32528;45.712;9.192;2023-04-28T00:54:46;12.00;92.50
28460;DHT22;32528;45.712;9.192;2023-04-28T00:56:47;11.90;92.50
28460;DHT22;32528;45.712;9.192;2023-04-28T00:58:49;11.90;92.60
28460;DHT22;32528;45.712;9.192;2023-04-28T01:00:51;11.80;92.80
28460;DHT22;32528;45.712;9.192;2023-04-28T01:02:52;11.80;92.80
28460;DHT22;32528;45.712;9.192;2023-04-28T01:04:56;11.80;92.80
28460;DHT22;32528;45.712;9.192;2023-04-28T01:06:59;11.90;92.40
28460;DHT22;32528;45.712;9.192;2023-04-28T01:09:00;12.00;92.40
28460;DHT22;32528;45.712;9.192;2023-04-28T01:11:01;12.00;92.70
28460;DHT22;32528;45.712;9.192;2023-04-28T01:13:20;11.90;92.70
28460;DHT22;32528;45.712;9.192;2023-04-28T01:15:21;11.80;92.70
28460;DHT22;32528;45.712;9.192;2023-04-28T01:17:25;11.80;92.80
28460;DHT22;32528;45.712;9.192;2023-04-28T01:19:26;11.80;93.10
28460;DHT22;32528;45.712;9.192;2023-04-28T01:21:31;11.70;93.00
28460;DHT22;32528;45.712;9.192;2023-04-28T01:23:34;11.70;93.20
28460;DHT22;32528;45.712;9.192;2023-04-28T01:25:36;11.70;93.20
28460;DHT22;32528;45.712;9.192;2023-04-28T01:27:37;11.80;92.90
28460;DHT22;32528;45.712;9.192;2023-04-28T01:29:38;11.80;93.00
28460;DHT22;32528;45.712;9.192;2023-04-28T01:31:39;11.70;93.20
28460;DHT22;32528;45.712;9.192;2023-04-28T01:33:41;11.70;93.10
28460;DHT22;32528;45.712;9.192;2023-04-28T01:35:43;11.70;93.10
28460;DHT22;32528;45.712;9.192;2023-04-28T01:37:45;11.70;93.00
28460;DHT22;32528;45.712;9.192;2023-04-28T01:39:46;11.60;93.20
28460;DHT22;32528;45.712;9.192;2023-04-28T01:41:46;11.60;93.40
28460;DHT22;32528;45.712;9.192;2023-04-28T01:43:47;11.50;93.50
28460;DHT22;32528;45.712;9.192;2023-04-28T01:45:48;11.50;93.60
28460;DHT22;32528;45.712;9.192;2023-04-28T01:47:49;11.50;93.60
28460;DHT22;32528;45.712;9.192;2023-04-28T01:49:50;11.50;93.50
28460;DHT22;32528;45.712;9.192;2023-04-28T01:51:50;11.50;93.50
28460;DHT22;32528;45.712;9.192;2023-04-28T01:53:53;11.40;93.60
28460;DHT22;32528;45.712;9.192;2023-04-28T01:55:54;11.40;93.40
28460;DHT22;32528;45.712;9.192;2023-04-28T01:57:55;11.50;93.40
28460;DHT22;32528;45.712;9.192;2023-04-28T01:59:58;11.40;93.40
28460;DHT22;32528;45.712;9.192;2023-04-28T02:02:02;11.40;93.50
28460;DHT22;32528;45.712;9.192;2023-04-28T02:04:03;11.30;93.60
28460;DHT22;32528;45.712;9.192;2023-04-28T02:06:06;11.30;93.70
28460;DHT22;32528;45.712;9.192;2023-04-28T02:08:07;11.30;93.80
28460;DHT22;32528;45.712;9.192;2023-04-28T02:10:08;11.30;93.90
28460;DHT22;32528;45.712;9.192;2023-04-28T02:12:09;11.20;94.10
28460;DHT22;32528;45.712;9.192;2023-04-28T02:14:10;11.20;94.10
28460;DHT22;32528;45.712;9.192;2023-04-28T02:16:11;11.20;94.10
28460;DHT22;32528;45.712;9.192;2023-04-28T02:18:11;11.20;94.00
28460;DHT22;32528;45.712;9.192;2023-04-28T02:20:15;11.20;94.10
28460;DHT22;32528;45.712;9.192;2023-04-28T02:22:16;11.20;94.10
28460;DHT22;32528;45.712;9.192;2023-04-28T02:24:17;11.10;94.20
28460;DHT22;32528;45.712;9.192;2023-04-28T02:26:17;11.10;94.10
28460;DHT22;32528;45.712;9.192;2023-04-28T02:28:18;11.00;94.40
28460;DHT22;32528;45.712;9.192;2023-04-28T02:30:19;10.90;94.60
28460;DHT22;32528;45.712;9.192;2023-04-28T02:32:20;10.90;94.70
28460;DHT22;32528;45.712;9.192;2023-04-28T02:34:25;10.90;95.00
28460;DHT22;32528;45.712;9.192;2023-04-28T02:36:25;10.80;95.20
28460;DHT22;32528;45.712;9.192;2023-04-28T02:38:27;10.80;95.30
28460;DHT22;32528;45.712;9.192;2023-04-28T02:40:28;10.80;95.40
28460;DHT22;32528;45.712;9.192;2023-04-28T02:42:29;10.70;95.60
28460;DHT22;32528;45.712;9.192;2023-04-28T02:44:30;10.70;95.80
28460;DHT22;32528;45.712;9.192;2023-04-28T02:46:31;10.80;96.00
28460;DHT22;32528;45.712;9.192;2023-04-28T02:48:33;10.70;96.20
28460;DHT22;32528;45.712;9.192;2023-04-28T02:50:35;10.80;96.60
28460;DHT22;32528;45.712;9.192;2023-04-28T02:52:36;10.80;96.50
28460;DHT22;32528;45.712;9.192;2023-04-28T02:54:38;10.80;96.50
28460;DHT22;32528;45.712;9.192;2023-04-28T02:56:39;10.90;96.40
28460;DHT22;32528;45.712;9.192;2023-04-28T02:58:40;10.90;96.20
28460;DHT22;32528;45.712;9.192;2023-04-28T03:00:41;10.90;96.10
28460;DHT22;32528;45.712;9.192;2023-04-28T03:02:43;10.90;96.00
28460;DHT22;32528;45.712;9.192;2023-04-28T03:04:43;10.90;95.70
28460;DHT22;32528;45.712;9.192;2023-04-28T03:06:44;10.90;96.00
28460;DHT22;32528;45.712;9.192;2023-04-28T03:08:45;10.80;96.10
28460;DHT22;32528;45.712;9.192;2023-04-28T03:10:46;10.80;96.50
28460;DHT22;32528;45.712;9.192;2023-04-28T03:12:47;10.80;96.70
28460;DHT22;32528;45.712;9.192;2023-04-28T03:14:48;10.70;96.60
28460;DHT22;32528;45.712;9.192;2023-04-28T03:16:50;10.70;96.50
28460;DHT22;32528;45.712;9.192;2023-04-28T03:18:52;10.70;96.60
28460;DHT22;32528;45.712;9.192;2023-04-28T03:20:53;10.80;96.50
28460;DHT22;32528;45.712;9.192;2023-04-28T03:22:54;10.90;96.20
28460;DHT22;32528;45.712;9.192;2023-04-28T03:24:55;10.80;96.00
28460;DHT22;32528;45.712;9.192;2023-04-28T03:26:57;10.80;96.20
28460;DHT22;32528;45.712;9.192;2023-04-28T03:28:58;10.80;96.40
28460;DHT22;32528;45.712;9.192;2023-04-28T03:31:00;10.80;96.60
28460;DHT22;32528;45.712;9.192;2023-04-28T03:33:01;10.80;96.90
28460;DHT22;32528;45.712;9.192;2023-04-28T03:35:02;10.80;96.50
28460;DHT22;32528;45.712;9.192;2023-04-28T03:37:04;10.80;96.50
28460;DHT22;32528;45.712;9.192;2023-04-28T03:39:04;10.80;96.80
28460;DHT22;32528;45.712;9.192;2023-04-28T03:41:06;10.90;96.50
28460;DHT22;32528;45.712;9.192;2023-04-28T03:43:29;10.90;96.70
28460;DHT22;32528;45.712;9.192;2023-04-28T03:45:45;11.00;96.70
28460;DHT22;32528;45.712;9.192;2023-04-28T03:47:46;10.90;97.20
28460;DHT22;32528;45.712;9.192;2023-04-28T03:49:47;11.00;97.30
28460;DHT22;32528;45.712;9.192;2023-04-28T03:51:48;11.00;97.30
28460;DHT22;32528;45.712;9.192;2023-04-28T03:53:52;11.10;97.20
28460;DHT22;32528;45.712;9.192;2023-04-28T03:55:52;11.20;97.00
28460;DHT22;32528;45.712;9.192;2023-04-28T03:57:53;11.30;96.70
28460;DHT22;32528;45.712;9.192;2023-04-28T03:59:54;11.40;96.40
28460;DHT22;32528;45.712;9.192;2023-04-28T04:01:55;11.40;96.20
28460;DHT22;32528;45.712;9.192;2023-04-28T04:03:55;11.40;96.20
28460;DHT22;32528;45.712;9.192;2023-04-28T04:05:58;11.30;96.30
28460;DHT22;32528;45.712;9.192;2023-04-28T04:07:58;11.30;96.30
28460;DHT22;32528;45.712;9.192;2023-04-28T04:09:59;11.20;97.00
28460;DHT22;32528;45.712;9.192;2023-04-28T04:11:59;11.20;97.50
28460;DHT22;32528;45.712;9.192;2023-04-28T04:14:00;11.20;97.90
28460;DHT22;32528;45.712;9.192;2023-04-28T04:16:03;11.10;97.90
28460;DHT22;32528;45.712;9.192;2023-04-28T04:18:04;11.10;97.00
28460;DHT22;32528;45.712;9.192;2023-04-28T04:20:19;11.10;97.00
28460;DHT22;32528;45.712;9.192;2023-04-28T04:22:20;11.10;97.00
28460;DHT22;32528;45.712;9.192;2023-04-28T04:24:21;11.10;97.00
28460;DHT22;32528;45.712;9.192;2023-04-28T04:26:22;11.10;97.20
28460;DHT22;32528;45.712;9.192;2023-04-28T04:28:24;11.20;97.60
28460;DHT22;32528;45.712;9.192;2023-04-28T04:30:26;11.10;97.50
28460;DHT22;32528;45.712;9.192;2023-04-28T04:32:27;11.10;97.50
28460;DHT22;32528;45.712;9.192;2023-04-28T04:34:28;11.10;97.60
28460;DHT22;32528;45.712;9.192;2023-04-28T04:36:29;11.10;97.80
28460;DHT22;32528;45.712;9.192;2023-04-28T04:38:32;11.20;97.90
28460;DHT22;32528;45.712;9.192;2023-04-28T04:40:42;11.10;97.70
28460;DHT22;32528;45.712;9.192;2023-04-28T04:42:43;11.10;97.90
28460;DHT22;32528;45.712;9.192;2023-04-28T04:44:49;11.20;97.80
28460;DHT22;32528;45.712;9.192;2023-04-28T04:47:00;11.20;97.80
28460;DHT22;32528;45.712;9.192;2023-04-28T04:49:01;11.20;97.80
28460;DHT22;32528;45.712;9.192;2023-04-28T04:51:01;11.20;97.70
28460;DHT22;32528;45.712;9.192;2023-04-28T04:53:02;11.20;97.70
28460;DHT22;32528;45.712;9.192;2023-04-28T04:55:03;11.10;98.00
28460;DHT22;32528;45.712;9.192;2023-04-28T04:57:06;11.20;98.00
28460;DHT22;32528;45.712;9.192;2023-04-28T04:59:27;11.20;97.90
28460;DHT22;32528;45.712;9.192;2023-04-28T05:01:35;11.30;97.80
28460;DHT22;32528;45.712;9.192;2023-04-28T05:03:35;11.40;97.90
28460;DHT22;32528;45.712;9.192;2023-04-28T05:05:36;11.50;98.00
28460;DHT22;32528;45.712;9.192;2023-04-28T05:07:47;11.50;97.80
28460;DHT22;32528;45.712;9.192;2023-04-28T05:09:48;11.60;97.90
28460;DHT22;32528;45.712;9.192;2023-04-28T05:11:49;11.60;97.70
28460;DHT22;32528;45.712;9.192;2023-04-28T05:13:50;11.70;97.70
28460;DHT22;32528;45.712;9.192;2023-04-28T05:15:51;11.80;97.50
28460;DHT22;32528;45.712;9.192;2023-04-28T05:18:15;11.90;97.30
28460;DHT22;32528;45.712;9.192;2023-04-28T05:20:16;12.00;97.00
28460;DHT22;32528;45.712;9.192;2023-04-28T05:22:18;12.10;96.90
28460;DHT22;32528;45.712;9.192;2023-04-28T05:24:20;12.20;96.90
28460;DHT22;32528;45.712;9.192;2023-04-28T05:26:23;12.30;96.80
28460;DHT22;32528;45.712;9.192;2023-04-28T05:28:27;12.30;96.80
28460;DHT22;32528;45.712;9.192;2023-04-28T05:30:29;12.40;97.70
28460;DHT22;32528;45.712;9.192;2023-04-28T05:32:30;12.60;96.80
28460;DHT22;32528;45.712;9.192;2023-04-28T05:34:31;12.70;96.40
28460;DHT22;32528;45.712;9.192;2023-04-28T05:36:32;12.70;96.50
28460;DHT22;32528;45.712;9.192;2023-04-28T05:38:33;12.80;96.60
28460;DHT22;32528;45.712;9.192;2023-04-28T05:40:34;12.80;96.70
28460;DHT22;32528;45.712;9.192;2023-04-28T05:42:35;12.90;96.40
28460;DHT22;32528;45.712;9.192;2023-04-28T05:44:36;13.10;96.10
28460;DHT22;32528;45.712;9.192;2023-04-28T05:46:38;13.20;95.80
28460;DHT22;32528;45.712;9.192;2023-04-28T05:48:39;13.20;95.60
28460;DHT22;32528;45.712;9.192;2023-04-28T05:50:40;13.20;95.60
28460;DHT22;32528;45.712;9.192;2023-04-28T05:52:41;13.30;95.50
28460;DHT22;32528;45.712;9.192;2023-04-28T05:54:42;13.20;95.60
28460;DHT22;32528;45.712;9.192;2023-04-28T05:56:43;13.30;95.90
28460;DHT22;32528;45.712;9.192;2023-04-28T05:58:43;13.30;95.80
28460;DHT22;32528;45.712;9.192;2023-04-28T06:00:44;13.30;95.50
28460;DHT22;32528;45.712;9.192;2023-04-28T06:02:46;13.40;95.60
28460;DHT22;32528;45.712;9.192;2023-04-28T06:04:47;13.40;95.50
28460;DHT22;32528;45.712;9.192;2023-04-28T06:06:48;13.40;95.60
28460;DHT22;32528;45.712;9.192;2023-04-28T06:08:49;13.40;96.00
28460;DHT22;32528;45.712;9.192;2023-04-28T06:10:50;13.50;95.60
28460;DHT22;32528;45.712;9.192;2023-04-28T06:12:54;13.50;95.50
28460;DHT22;32528;45.712;9.192;2023-04-28T06:14:55;13.70;95.40
28460;DHT22;32528;45.712;9.192;2023-04-28T06:16:55;13.80;95.30
28460;DHT22;32528;45.712;9.192;2023-04-28T06:18:56;14.00;95.50
28460;DHT22;32528;45.712;9.192;2023-04-28T06:20:58;14.10;95.40
28460;DHT22;32528;45.712;9.192;2023-04-28T06:22:58;14.20;95.30
28460;DHT22;32528;45.712;9.192;2023-04-28T06:24:59;14.20;95.60
28460;DHT22;32528;45.712;9.192;2023-04-28T06:27:07;14.20;95.30
28460;DHT22;32528;45.712;9.192;2023-04-28T06:29:08;14.30;95.40
28460;DHT22;32528;45.712;9.192;2023-04-28T06:31:09;14.40;95.40
28460;DHT22;32528;45.712;9.192;2023-04-28T06:33:09;14.60;94.90
28460;DHT22;32528;45.712;9.192;2023-04-28T06:35:10;14.70;94.60
28460;DHT22;32528;45.712;9.192;2023-04-28T06:37:11;14.80;94.30
28460;DHT22;32528;45.712;9.192;2023-04-28T06:39:12;14.80;94.20
28460;DHT22;32528;45.712;9.192;2023-04-28T06:41:13;14.90;94.00
28460;DHT22;32528;45.712;9.192;2023-04-28T06:43:17;14.90;93.90
28460;DHT22;32528;45.712;9.192;2023-04-28T06:45:27;14.90;93.90
28460;DHT22;32528;45.712;9.192;2023-04-28T06:47:30;14.90;94.10
28460;DHT22;32528;45.712;9.192;2023-04-28T06:49:31;14.90;94.10
28460;DHT22;32528;45.712;9.192;2023-04-28T06:51:34;15.00;94.20
28460;DHT22;32528;45.712;9.192;2023-04-28T06:53:36;15.20;93.90
28460;DHT22;32528;45.712;9.192;2023-04-28T06:55:37;15.40;93.50
28460;DHT22;32528;45.712;9.192;2023-04-28T06:57:37;15.60;93.00
28460;DHT22;32528;45.712;9.192;2023-04-28T06:59:38;15.80;92.70
28460;DHT22;32528;45.712;9.192;2023-04-28T07:01:39;15.90;92.30
28460;DHT22;32528;45.712;9.192;2023-04-28T07:03:39;16.10;91.20
28460;DHT22;32528;45.712;9.192;2023-04-28T07:05:40;16.20;91.30
28460;DHT22;32528;45.712;9.192;2023-04-28T07:07:41;16.40;91.20
28460;DHT22;32528;45.712;9.192;2023-04-28T07:09:42;16.40;90.90
28460;DHT22;32528;45.712;9.192;2023-04-28T07:11:44;16.50;90.50
28460;DHT22;32528;45.712;9.192;2023-04-28T07:13:44;16.60;90.00
28460;DHT22;32528;45.712;9.192;2023-04-28T07:15:50;16.80;88.60
28460;DHT22;32528;45.712;9.192;2023-04-28T07:17:51;16.90;85.40
28460;DHT22;32528;45.712;9.192;2023-04-28T07:19:53;17.00;83.90
28460;DHT22;32528;45.712;9.192;2023-04-28T07:21:54;17.00;83.10
28460;DHT22;32528;45.712;9.192;2023-04-28T07:23:54;16.90;82.30
28460;DHT22;32528;45.712;9.192;2023-04-28T07:25:58;16.80;82.80
28460;DHT22;32528;45.712;9.192;2023-04-28T07:28:01;17.00;82.60
28460;DHT22;32528;45.712;9.192;2023-04-28T07:30:02;17.10;82.00
28460;DHT22;32528;45.712;9.192;2023-04-28T07:32:04;17.10;80.60
28460;DHT22;32528;45.712;9.192;2023-04-28T07:34:07;17.20;80.90
28460;DHT22;32528;45.712;9.192;2023-04-28T07:36:08;17.30;80.30
28460;DHT22;32528;45.712;9.192;2023-04-28T07:38:09;17.50;79.90
28460;DHT22;32528;45.712;9.192;2023-04-28T07:40:11;17.70;78.80
28460;DHT22;32528;45.712;9.192;2023-04-28T07:42:11;17.70;78.60
28460;DHT22;32528;45.712;9.192;2023-04-28T07:44:12;17.70;79.10
28460;DHT22;32528;45.712;9.192;2023-04-28T07:46:13;17.70;78.40
28460;DHT22;32528;45.712;9.192;2023-04-28T07:48:14;17.70;77.60
28460;DHT22;32528;45.712;9.192;2023-04-28T07:50:15;17.60;77.00
28460;DHT22;32528;45.712;9.192;2023-04-28T07:52:17;17.70;77.60
28460;DHT22;32528;45.712;9.192;2023-04-28T07:54:18;17.80;76.70
28460;DHT22;32528;45.712;9.192;2023-04-28T07:56:19;18.20;75.90
28460;DHT22;32528;45.712;9.192;2023-04-28T07:58:21;18.40;75.40
28460;DHT22;32528;45.712;9.192;2023-04-28T08:00:22;18.60;75.30
28460;DHT22;32528;45.712;9.192;2023-04-28T08:02:22;18.80;75.20
28460;DHT22;32528;45.712;9.192;2023-04-28T08:04:23;18.90;72.80
28460;DHT22;32528;45.712;9.192;2023-04-28T08:06:24;18.90;72.10
28460;DHT22;32528;45.712;9.192;2023-04-28T08:08:25;18.90;72.70
28460;DHT22;32528;45.712;9.192;2023-04-28T08:10:27;19.00;73.40
28460;DHT22;32528;45.712;9.192;2023-04-28T08:12:28;19.20;72.90
28460;DHT22;32528;45.712;9.192;2023-04-28T08:14:29;19.40;72.40
28460;DHT22;32528;45.712;9.192;2023-04-28T08:16:30;19.20;72.00
28460;DHT22;32528;45.712;9.192;2023-04-28T08:18:31;19.00;72.20
28460;DHT22;32528;45.712;9.192;2023-04-28T08:20:32;18.80;75.40
28460;DHT22;32528;45.712;9.192;2023-04-28T08:22:32;18.90;74.40
28460;DHT22;32528;45.712;9.192;2023-04-28T08:24:33;18.80;73.00
28460;DHT22;32528;45.712;9.192;2023-04-28T08:26:34;18.60;72.20
28460;DHT22;32528;45.712;9.192;2023-04-28T08:28:36;18.70;72.30
28460;DHT22;32528;45.712;9.192;2023-04-28T08:30:38;18.70;72.80
28460;DHT22;32528;45.712;9.192;2023-04-28T08:32:39;18.40;73.20
28460;DHT22;32528;45.712;9.192;2023-04-28T08:34:40;18.30;73.50
28460;DHT22;32528;45.712;9.192;2023-04-28T08:36:41;18.50;74.20
28460;DHT22;32528;45.712;9.192;2023-04-28T08:38:42;18.50;73.90
28460;DHT22;32528;45.712;9.192;2023-04-28T08:40:43;18.50;73.80
28460;DHT22;32528;45.712;9.192;2023-04-28T08:42:44;18.60;73.80
28460;DHT22;32528;45.712;9.192;2023-04-28T08:44:45;18.60;72.90
28460;DHT22;32528;45.712;9.192;2023-04-28T08:46:49;18.60;72.50
28460;DHT22;32528;45.712;9.192;2023-04-28T08:48:58;18.70;72.60
28460;DHT22;32528;45.712;9.192;2023-04-28T08:51:00;18.70;72.90
28460;DHT22;32528;45.712;9.192;2023-04-28T08:53:03;18.70;73.00
28460;DHT22;32528;45.712;9.192;2023-04-28T08:55:09;18.60;72.60
28460;DHT22;32528;45.712;9.192;2023-04-28T08:57:10;18.70;72.60
28460;DHT22;32528;45.712;9.192;2023-04-28T08:59:11;18.70;72.50
28460;DHT22;32528;45.712;9.192;2023-04-28T09:01:16;18.60;72.20
28460;DHT22;32528;45.712;9.192;2023-04-28T09:03:17;18.50;72.30
28460;DHT22;32528;45.712;9.192;2023-04-28T09:05:18;18.40;72.70
28460;DHT22;32528;45.712;9.192;2023-04-28T09:07:19;18.40;72.50
28460;DHT22;32528;45.712;9.192;2023-04-28T09:11:21;18.70;72.80
28460;DHT22;32528;45.712;9.192;2023-04-28T09:13:26;18.90;72.60
28460;DHT22;32528;45.712;9.192;2023-04-28T09:15:29;19.20;72.10
28460;DHT22;32528;45.712;9.192;2023-04-28T09:17:31;19.30;70.70
28460;DHT22;32528;45.712;9.192;2023-04-28T09:19:36;19.50;69.50
28460;DHT22;32528;45.712;9.192;2023-04-28T09:23:53;19.60;68.10
28460;DHT22;32528;45.712;9.192;2023-04-28T09:26:04;19.50;68.90
28460;DHT22;32528;45.712;9.192;2023-04-28T09:28:21;19.70;68.90
28460;DHT22;32528;45.712;9.192;2023-04-28T09:30:37;19.70;67.60
28460;DHT22;32528;45.712;9.192;2023-04-28T09:32:39;19.60;65.70
28460;DHT22;32528;45.712;9.192;2023-04-28T09:34:46;19.60;66.40
28460;DHT22;32528;45.712;9.192;2023-04-28T09:36:47;19.70;66.00
28460;DHT22;32528;45.712;9.192;2023-04-28T09:38:48;19.70;66.20
28460;DHT22;32528;45.712;9.192;2023-04-28T09:42:52;19.90;65.20
28460;DHT22;32528;45.712;9.192;2023-04-28T09:44:53;20.10;64.70
28460;DHT22;32528;45.712;9.192;2023-04-28T09:46:55;20.20;64.70
28460;DHT22;32528;45.712;9.192;2023-04-28T09:49:00;20.20;63.60
28460;DHT22;32528;45.712;9.192;2023-04-28T09:51:03;19.90;62.30
28460;DHT22;32528;45.712;9.192;2023-04-28T09:53:05;19.80;63.40
28460;DHT22;32528;45.712;9.192;2023-04-28T09:55:07;19.70;64.00
28460;DHT22;32528;45.712;9.192;2023-04-28T09:57:08;19.60;63.50
28460;DHT22;32528;45.712;9.192;2023-04-28T09:59:10;19.40;63.30
28460;DHT22;32528;45.712;9.192;2023-04-28T10:01:11;19.60;63.40
28460;DHT22;32528;45.712;9.192;2023-04-28T10:03:13;19.50;62.40
28460;DHT22;32528;45.712;9.192;2023-04-28T10:05:15;19.70;61.70
28460;DHT22;32528;45.712;9.192;2023-04-28T10:07:17;19.80;62.00
28460;DHT22;32528;45.712;9.192;2023-04-28T10:09:19;19.90;61.20
28460;DHT22;32528;45.712;9.192;2023-04-28T10:11:26;20.20;61.80
28460;DHT22;32528;45.712;9.192;2023-04-28T10:13:28;20.20;60.90
28460;DHT22;32528;45.712;9.192;2023-04-28T10:15:31;20.30;60.30
28460;DHT22;32528;45.712;9.192;2023-04-28T10:17:32;20.30;61.20
28460;DHT22;32528;45.712;9.192;2023-04-28T10:19:34;20.40;61.40
28460;DHT22;32528;45.712;9.192;2023-04-28T10:21:39;20.50;60.00
28460;DHT22;32528;45.712;9.192;2023-04-28T10:26:09;20.50;59.70
28460;DHT22;32528;45.712;9.192;2023-04-28T10:28:11;20.50;60.40
28460;DHT22;32528;45.712;9.192;2023-04-28T10:30:22;20.50;60.50
28460;DHT22;32528;45.712;9.192;2023-04-28T10:32:23;20.50;59.20
28460;DHT22;32528;45.712;9.192;2023-04-28T10:34:28;20.60;59.30
28460;DHT22;32528;45.712;9.192;2023-04-28T10:36:50;20.50;60.50
28460;DHT22;32528;45.712;9.192;2023-04-28T10:39:13;20.50;59.20
28460;DHT22;32528;45.712;9.192;2023-04-28T10:41:33;20.60;59.60
28460;DHT22;32528;45.712;9.192;2023-04-28T10:43:35;20.60;60.70
28460;DHT22;32528;45.712;9.192;2023-04-28T10:47:59;20.70;61.10
28460;DHT22;32528;45.712;9.192;2023-04-28T10:50:07;20.80;62.00
28460;DHT22;32528;45.712;9.192;2023-04-28T10:57:24;20.90;58.60
28460;DHT22;32528;45.712;9.192;2023-04-28T10:59:26;20.90;59.00
28460;DHT22;32528;45.712;9.192;2023-04-28T11:01:29;20.90;60.30
28460;DHT22;32528;45.712;9.192;2023-04-28T11:06:24;20.90;60.10
28460;DHT22;32528;45.712;9.192;2023-04-28T11:08:31;20.80;60.20
28460;DHT22;32528;45.712;9.192;2023-04-28T11:13:26;21.10;62.60
28460;DHT22;32528;45.712;9.192;2023-04-28T11:15:27;21.30;60.90
28460;DHT22;32528;45.712;9.192;2023-04-28T11:17:41;21.30;61.40
28460;DHT22;32528;45.712;9.192;2023-04-28T11:19:43;21.10;61.60
28460;DHT22;32528;45.712;9.192;2023-04-28T11:21:46;21.10;63.20
28460;DHT22;32528;45.712;9.192;2023-04-28T11:23:48;21.20;62.60
28460;DHT22;32528;45.712;9.192;2023-04-28T11:25:57;21.20;62.90
28460;DHT22;32528;45.712;9.192;2023-04-28T11:28:04;21.20;61.50
28460;DHT22;32528;45.712;9.192;2023-04-28T11:30:20;21.20;61.00
28460;DHT22;32528;45.712;9.192;2023-04-28T11:32:30;21.20;62.00
28460;DHT22;32528;45.712;9.192;2023-04-28T11:34:31;21.30;62.40
28460;DHT22;32528;45.712;9.192;2023-04-28T11:36:38;21.20;60.00
28460;DHT22;32528;45.712;9.192;2023-04-28T11:38:43;21.30;60.00
28460;DHT22;32528;45.712;9.192;2023-04-28T11:40:57;21.40;61.70
28460;DHT22;32528;45.712;9.192;2023-04-28T11:42:58;21.60;62.40
28460;DHT22;32528;45.712;9.192;2023-04-28T11:45:00;21.70;61.60
28460;DHT22;32528;45.712;9.192;2023-04-28T11:47:03;21.60;61.40
28460;DHT22;32528;45.712;9.192;2023-04-28T11:49:05;21.50;60.00
28460;DHT22;32528;45.712;9.192;2023-04-28T11:51:06;21.60;61.00
28460;DHT22;32528;45.712;9.192;2023-04-28T11:53:07;21.70;62.90
28460;DHT22;32528;45.712;9.192;2023-04-28T11:55:15;21.90;62.60
28460;DHT22;32528;45.712;9.192;2023-04-28T11:57:18;22.00;62.50
28460;DHT22;32528;45.712;9.192;2023-04-28T11:59:26;22.10;62.00
28460;DHT22;32528;45.712;9.192;2023-04-28T12:01:27;22.20;61.50
28460;DHT22;32528;45.712;9.192;2023-04-28T12:03:29;22.30;60.00
28460;DHT22;32528;45.712;9.192;2023-04-28T12:05:30;22.30;60.10
28460;DHT22;32528;45.712;9.192;2023-04-28T12:07:43;22.30;60.10
28460;DHT22;32528;45.712;9.192;2023-04-28T12:12:26;22.10;60.60
28460;DHT22;32528;45.712;9.192;2023-04-28T12:14:28;22.10;60.60
28460;DHT22;32528;45.712;9.192;2023-04-28T12:16:37;22.10;60.60
28460;DHT22;32528;45.712;9.192;2023-04-28T12:18:57;22.20;62.60
28460;DHT22;32528;45.712;9.192;2023-04-28T12:20:59;22.30;59.50
28460;DHT22;32528;45.712;9.192;2023-04-28T12:23:00;22.40;60.00
28460;DHT22;32528;45.712;9.192;2023-04-28T12:27:20;22.50;59.80
28460;DHT22;32528;45.712;9.192;2023-04-28T12:29:38;22.40;59.60
28460;DHT22;32528;45.712;9.192;2023-04-28T12:31:49;22.20;59.80
28460;DHT22;32528;45.712;9.192;2023-04-28T12:33:50;22.30;60.10
28460;DHT22;32528;45.712;9.192;2023-04-28T12:35:52;22.50;59.60
28460;DHT22;32528;45.712;9.192;2023-04-28T12:37:56;22.60;59.20
28460;DHT22;32528;45.712;9.192;2023-04-28T12:39:58;22.60;59.40
28460;DHT22;32528;45.712;9.192;2023-04-28T12:41:59;22.60;58.30
28460;DHT22;32528;45.712;9.192;2023-04-28T12:44:01;22.70;57.70
28460;DHT22;32528;45.712;9.192;2023-04-28T12:46:02;22.80;59.20
28460;DHT22;32528;45.712;9.192;2023-04-28T12:48:03;22.90;59.20
28460;DHT22;32528;45.712;9.192;2023-04-28T12:50:05;23.10;58.30
28460;DHT22;32528;45.712;9.192;2023-04-28T12:52:06;23.10;57.70
28460;DHT22;32528;45.712;9.192;2023-04-28T12:54:08;23.10;58.30
28460;DHT22;32528;45.712;9.192;2023-04-28T12:56:08;23.20;58.50
28460;DHT22;32528;45.712;9.192;2023-04-28T12:58:09;23.20;56.80
28460;DHT22;32528;45.712;9.192;2023-04-28T13:00:10;23.20;56.60
28460;DHT22;32528;45.712;9.192;2023-04-28T13:02:16;23.30;58.00
28460;DHT22;32528;45.712;9.192;2023-04-28T13:04:17;23.40;57.80
28460;DHT22;32528;45.712;9.192;2023-04-28T13:06:19;23.30;58.00
28460;DHT22;32528;45.712;9.192;2023-04-28T13:08:20;23.30;57.10
28460;DHT22;32528;45.712;9.192;2023-04-28T13:10:22;23.40;57.50
28460;DHT22;32528;45.712;9.192;2023-04-28T13:12:23;23.60;56.60
28460;DHT22;32528;45.712;9.192;2023-04-28T13:14:25;23.60;57.50
28460;DHT22;32528;45.712;9.192;2023-04-28T13:16:26;23.50;56.30
28460;DHT22;32528;45.712;9.192;2023-04-28T13:18:30;23.60;57.50
28460;DHT22;32528;45.712;9.192;2023-04-28T13:20:31;23.60;57.30
28460;DHT22;32528;45.712;9.192;2023-04-28T13:22:32;23.70;57.10